Time;durP1;ratioP1;P1;durP2;ratioP2;P2;SDS_P1;SDS_P2;PMS_P1;PMS_P2;Temp;Humidity;BMP_temperature;BMP_pressure;BME280_temperature;BME280_humidity;BME280_pressure;Samples;Min_cycle;Max_cycle;Signal;HPM_P1;HPM_P2
2022/11/09 00:00:39;;;;;;;17.20;14.23;;;;;;;10.18;100.00;102145.81;2072255;28;20182;-68
2022/11/09 00:01:40;;;;;;;16.27;14.40;;;;;;;10.23;100.00;102145.44;2072979;28;20192;-68
2022/11/09 00:02:40;;;;;;;17.00;14.47;;;;;;;10.25;100.00;102151.34;2072873;28;20439;-68
2022/11/09 00:03:41;;;;;;;15.63;13.93;;;;;;;10.29;100.00;102152.16;2072277;28;20200;-68
2022/11/09 00:04:41;;;;;;;18.10;15.27;;;;;;;9.65;100.00;102053.50;2072715;28;20543;-68
2022/11/09 00:05:42;;;;;;;20.67;16.77;;;;;;;10.32;100.00;102176.34;2071789;28;20267;-68
2022/11/09 00:06:42;;;;;;;18.90;16.33;;;;;;;9.95;100.00;102097.47;2072490;28;20216;-68
2022/11/09 00:07:43;;;;;;;19.30;16.33;;;;;;;10.35;100.00;102158.13;2073085;28;20197;-68
2022/11/09 00:08:43;;;;;;;18.67;16.53;;;;;;;10.38;100.00;102158.13;2071918;28;20188;-68
2022/11/09 00:09:44;;;;;;;19.37;16.73;;;;;;;10.39;100.00;102156.94;2072452;28;20657;-68
2022/11/09 00:10:44;;;;;;;19.30;16.07;;;;;;;10.44;100.00;102166.81;2072957;28;20327;-68
2022/11/09 00:11:45;;;;;;;19.50;17.27;;;;;;;10.44;100.00;102155.75;2073253;28;20197;-68
2022/11/09 00:12:45;;;;;;;21.60;18.83;;;;;;;10.41;100.00;102157.31;2071696;28;20196;-68
2022/11/09 00:13:46;;;;;;;21.90;17.87;;;;;;;10.43;100.00;102166.06;2071584;28;20190;-68
2022/11/09 00:14:47;;;;;;;20.93;18.20;;;;;;;10.39;100.00;102151.38;2071973;28;20678;-68
2022/11/09 00:15:47;;;;;;;21.77;19.00;;;;;;;10.47;100.00;102163.28;2072538;28;20914;-68
2022/11/09 00:16:48;;;;;;;23.07;19.60;;;;;;;9.66;100.00;102029.38;2072225;28;20185;-68
2022/11/09 00:17:48;;;;;;;22.57;18.60;;;;;;;10.53;100.00;102162.50;2072277;28;20193;-68
2022/11/09 00:18:50;;;;;;;21.83;18.43;;;;;;;10.56;100.00;102160.91;2071601;28;20277;-68
2022/11/09 00:19:51;;;;;;;22.10;19.03;;;;;;;10.54;100.00;102161.31;2073020;28;20192;-68
2022/11/09 00:20:51;;;;;;;22.50;18.90;;;;;;;9.38;100.00;101983.03;2072255;28;20929;-68
2022/11/09 00:21:52;;;;;;;24.03;18.87;;;;;;;9.81;100.00;102044.81;2071698;28;20190;-68
2022/11/09 00:22:52;;;;;;;22.53;18.90;;;;;;;10.58;100.00;102162.09;2069976;28;20189;-68
2022/11/09 00:23:53;;;;;;;21.33;18.67;;;;;;;10.59;100.00;102160.09;2071204;28;20567;-69
2022/11/09 00:24:54;;;;;;;20.50;18.30;;;;;;;10.66;100.00;102162.91;2071562;28;20683;-68
2022/11/09 00:25:59;;;;;;;22.63;18.00;;;;;;;10.66;100.00;102160.13;2072428;28;20825;-68
2022/11/09 00:27:00;;;;;;;23.20;19.27;;;;;;;10.60;100.00;102150.63;2072551;28;20209;-68
2022/11/09 00:28:00;;;;;;;22.20;18.17;;;;;;;10.68;100.00;102160.50;2072274;28;20505;-68
2022/11/09 00:29:00;;;;;;;22.10;18.83;;;;;;;10.63;100.00;102142.31;2071848;28;20617;-68
2022/11/09 00:30:01;;;;;;;22.53;18.40;;;;;;;10.68;100.00;102147.44;2071465;28;20275;-68
2022/11/09 00:31:11;;;;;;;21.57;19.03;;;;;;;10.68;100.00;102160.50;2072494;28;20200;-69
2022/11/09 00:32:12;;;;;;;22.20;19.17;;;;;;;10.64;100.00;102143.88;2071796;28;20188;-68
2022/11/09 00:33:12;;;;;;;20.90;17.77;;;;;;;10.74;100.00;102153.38;2072589;28;20447;-68
2022/11/09 00:34:12;;;;;;;24.83;18.97;;;;;;;10.73;100.00;102155.38;2072178;28;20782;-68
2022/11/09 00:35:13;;;;;;;21.43;18.00;;;;;;;10.77;100.00;102158.91;2071544;28;20189;-68
2022/11/09 00:36:18;;;;;;;20.83;17.37;;;;;;;10.79;100.00;102152.97;2071313;28;20185;-68
2022/11/09 00:37:18;;;;;;;23.10;18.73;;;;;;;10.82;100.00;102150.19;2071856;28;20182;-68
2022/11/09 00:38:18;;;;;;;21.20;18.03;;;;;;;10.80;100.00;102152.59;2072649;28;20431;-68
2022/11/09 00:39:19;;;;;;;20.57;17.93;;;;;;;10.78;100.00;102143.09;2071925;28;20207;-68
2022/11/09 00:40:19;;;;;;;19.30;17.20;;;;;;;10.90;100.00;102156.53;2072183;28;20391;-68
2022/11/09 00:41:20;;;;;;;22.53;18.10;;;;;;;10.89;100.00;102150.22;2072007;28;20193;-68
2022/11/09 00:42:21;;;;;;;21.93;17.60;;;;;;;10.78;100.00;102140.31;2071763;28;20198;-68
2022/11/09 00:43:21;;;;;;;19.33;16.33;;;;;;;10.85;100.00;102151.38;2072610;28;20197;-68
2022/11/09 00:44:21;;;;;;;18.00;15.10;;;;;;;10.93;100.00;102159.34;2071421;28;20610;-68
2022/11/09 00:45:22;;;;;;;21.30;16.93;;;;;;;10.37;100.00;102061.53;2071717;28;20713;-68
2022/11/09 00:46:22;;;;;;;21.20;15.80;;;;;;;10.97;100.00;102154.53;2072535;28;20652;-68
2022/11/09 00:47:23;;;;;;;20.37;16.73;;;;;;;10.94;100.00;102152.59;2072591;28;20275;-68
2022/11/09 00:48:23;;;;;;;21.37;16.33;;;;;;;10.59;100.00;102097.16;2072065;28;20277;-68
2022/11/09 00:49:24;;;;;;;19.83;17.10;;;;;;;10.92;100.00;102140.31;2071369;28;20276;-68
2022/11/09 00:50:24;;;;;;;17.33;15.47;;;;;;;9.96;100.00;101975.22;2071762;28;20229;-68
2022/11/09 00:51:25;;;;;;;18.63;15.70;;;;;;;11.13;100.00;102152.13;2072139;28;20675;-68
2022/11/09 00:52:25;;;;;;;18.00;15.80;;;;;;;11.13;100.00;102149.38;2071692;28;20189;-68
2022/11/09 00:53:26;;;;;;;20.73;16.77;;;;;;;10.63;100.00;102066.66;2072385;28;20182;-68
2022/11/09 00:54:26;;;;;;;21.37;16.50;;;;;;;11.15;100.00;102154.53;2072374;28;20670;-68
2022/11/09 00:55:27;;;;;;;20.00;16.30;;;;;;;11.01;100.00;102135.91;2071842;28;20239;-68
2022/11/09 00:56:27;;;;;;;22.40;16.30;;;;;;;10.19;100.00;102006.09;2071712;28;20548;-68
2022/11/09 00:57:27;;;;;;;20.73;16.60;;;;;;;11.11;100.00;102143.44;2071727;28;20280;-68
2022/11/09 00:58:30;;;;;;;19.90;17.37;;;;;;;11.15;100.00;102144.22;2072095;28;20216;-68
2022/11/09 00:59:30;;;;;;;20.67;17.23;;;;;;;11.16;100.00;102134.69;2071091;28;20634;-68
2022/11/09 01:00:30;;;;;;;19.73;16.93;;;;;;;11.28;100.00;102144.59;2072131;28;20436;-69
2022/11/09 01:01:31;;;;;;;18.77;16.67;;;;;;;11.30;100.00;102142.19;2072356;28;20188;-68
2022/11/09 01:02:31;;;;;;;21.30;16.53;;;;;;;11.28;100.00;102147.38;2071265;28;20682;-68
2022/11/09 01:03:32;;;;;;;20.40;16.63;;;;;;;11.37;100.00;102145.75;2072473;28;20219;-68
2022/11/09 01:04:32;;;;;;;22.63;16.57;;;;;;;11.30;100.00;102145.78;2072015;28;20284;-68
2022/11/09 01:05:33;;;;;;;25.33;16.60;;;;;;;11.37;100.00;102147.75;2071888;28;20281;-68
2022/11/09 01:06:34;;;;;;;21.73;16.73;;;;;;;11.39;100.00;102154.47;2071549;28;20260;-69
2022/11/09 01:07:36;;;;;;;21.33;15.87;;;;;;;11.17;100.00;102104.97;2071646;28;20289;-68
2022/11/09 01:08:37;;;;;;;19.03;16.00;;;;;;;11.41;100.00;102145.72;2071910;28;20209;-68
2022/11/09 01:09:37;;;;;;;21.03;16.40;;;;;;;11.09;100.00;102095.09;2071814;28;20444;-68
2022/11/09 01:10:43;;;;;;;22.57;15.77;;;;;;;11.46;100.00;102146.13;2070825;28;20268;-68
2022/11/09 01:11:44;;;;;;;21.73;16.77;;;;;;;11.46;100.00;102148.09;2072077;28;20186;-68
2022/11/09 01:12:44;;;;;;;22.77;17.07;;;;;;;11.49;100.00;102141.75;2071696;28;20425;-68
2022/11/09 01:13:45;;;;;;;22.77;16.07;;;;;;;11.51;100.00;102139.34;2072261;28;20283;-68
2022/11/09 01:14:46;;;;;;;21.47;15.90;;;;;;;11.50;100.00;102143.31;2072037;28;20567;-68
2022/11/09 01:15:50;;;;;;;17.70;15.27;;;;;;;10.88;100.00;102046.00;2072025;28;20192;-68
2022/11/09 01:16:51;;;;;;;17.97;15.07;;;;;;;11.51;100.00;102137.38;2071235;28;20212;-68
2022/11/09 01:17:51;;;;;;;18.80;15.07;;;;;;;11.54;100.00;102139.34;2071591;28;20487;-68
2022/11/09 01:18:56;;;;;;;16.97;15.03;;;;;;;10.99;100.00;102043.19;2071619;28;20201;-68
2022/11/09 01:19:57;;;;;;;17.90;14.83;;;;;;;11.27;100.00;102088.28;2072012;28;20239;-68
2022/11/09 01:20:57;;;;;;;18.17;15.60;;;;;;;11.61;100.00;102135.78;2071733;28;20483;-69
2022/11/09 01:21:57;;;;;;;18.47;14.93;;;;;;;11.53;100.00;102121.09;2072342;28;20728;-68
2022/11/09 01:22:58;;;;;;;21.07;15.50;;;;;;;11.53;100.00;102109.22;2071919;28;20191;-68
2022/11/09 01:23:58;;;;;;;16.80;14.57;;;;;;;11.67;100.00;102129.41;2071882;28;20192;-68
2022/11/09 01:24:59;;;;;;;19.30;13.80;;;;;;;11.69;100.00;102127.00;2071620;28;20631;-69
2022/11/09 01:26:01;;;;;;;18.50;14.53;;;;;;;11.68;100.00;102133.75;2071470;28;20283;-68
2022/11/09 01:27:02;;;;;;;17.40;14.57;;;;;;;11.65;100.00;102140.13;2071864;28;20674;-68
2022/11/09 01:28:04;;;;;;;19.00;14.37;;;;;;;11.66;100.00;102138.13;2071453;28;20420;-68
2022/11/09 01:29:04;;;;;;;16.97;13.87;;;;;;;11.61;100.00;102133.81;2071339;28;20240;-68
2022/11/09 01:30:05;;;;;;;17.43;14.43;;;;;;;10.99;100.00;102035.69;2072148;28;20465;-68
2022/11/09 01:31:11;;;;;;;16.40;14.63;;;;;;;11.60;100.00;102128.66;2071882;28;20245;-68
2022/11/09 01:32:11;;;;;;;17.77;14.87;;;;;;;11.58;100.00;102133.78;2071507;28;20949;-68
2022/11/09 01:33:11;;;;;;;17.13;15.00;;;;;;;11.58;100.00;102137.34;2071206;28;20549;-69
2022/11/09 01:34:12;;;;;;;17.80;15.20;;;;;;;11.54;100.00;102133.00;2071210;28;20193;-68
2022/11/09 01:35:12;;;;;;;17.07;15.23;;;;;;;11.53;100.00;102134.22;2071299;28;20199;-68
2022/11/09 01:36:19;;;;;;;17.03;15.17;;;;;;;11.56;100.00;102127.81;2071100;28;20499;-68
2022/11/09 01:37:20;;;;;;;19.97;15.00;;;;;;;11.51;100.00;102133.78;2071716;28;20736;-68
2022/11/09 01:38:20;;;;;;;19.70;16.47;;;;;;;11.46;100.00;102121.13;2071081;28;20474;-68
2022/11/09 01:39:21;;;;;;;17.40;15.40;;;;;;;11.43;100.00;102137.81;2071258;28;20181;-68
2022/11/09 01:40:21;;;;;;;16.17;14.30;;;;;;;11.44;100.00;102136.59;2072499;28;20182;-68
2022/11/09 01:41:25;;;;;;;16.63;14.83;;;;;;;11.46;100.00;102131.44;2071787;28;20217;-68
2022/11/09 01:42:25;;;;;;;18.77;14.77;;;;;;;11.45;100.00;102136.22;2071363;28;20573;-68
2022/11/09 01:43:26;;;;;;;15.10;13.50;;;;;;;11.22;100.00;102096.25;2071613;28;20444;-68
2022/11/09 01:44:26;;;;;;;16.27;13.70;;;;;;;11.33;100.00;102149.72;2071832;28;20277;-68
2022/11/09 01:45:29;;;;;;;15.97;13.40;;;;;;;11.30;100.00;102133.88;2071477;28;20671;-68
2022/11/09 01:46:51;;;;;;;17.17;14.20;;;;;;;11.16;100.00;102137.47;2071448;28;20288;-68
2022/11/09 01:48:00;;;;;;;16.47;13.77;;;;;;;11.05;100.00;102135.91;2071491;28;20534;-68
2022/11/09 01:49:08;;;;;;;16.57;14.23;;;;;;;10.97;100.00;102131.56;2070604;28;20472;-68
2022/11/09 01:50:11;;;;;;;15.77;13.57;;;;;;;10.97;100.00;102143.44;2070574;28;20469;-68
2022/11/09 01:51:39;;;;;;;17.20;14.03;;;;;;;10.92;100.00;102148.63;2071061;28;20494;-68
2022/11/09 01:52:44;;;;;;;17.30;13.10;;;;;;;10.89;100.00;102141.88;2071477;28;20989;-68
2022/11/09 01:53:48;;;;;;;16.00;13.27;;;;;;;10.86;100.00;102141.91;2070839;28;20839;-68
2022/11/09 01:54:56;;;;;;;17.90;13.83;;;;;;;9.93;100.00;102002.91;2071536;28;21017;-68
2022/11/09 01:56:00;;;;;;;16.23;14.17;;;;;;;10.83;100.00;102140.72;2071669;28;20934;-68
2022/11/09 01:57:09;;;;;;;19.23;14.80;;;;;;;10.86;100.00;102148.22;2071182;28;20993;-68
2022/11/09 01:58:16;;;;;;;17.10;13.70;;;;;;;10.65;100.00;102103.88;2071756;28;20876;-68
2022/11/09 01:59:22;;;;;;;15.63;13.97;;;;;;;10.95;100.00;102143.06;2070488;28;20467;-68
2022/11/09 02:00:23;;;;;;;16.07;13.60;;;;;;;10.97;100.00;102145.44;2071432;28;20937;-68
2022/11/09 02:01:24;;;;;;;16.77;13.83;;;;;;;10.89;100.00;102124.44;2071540;28;20821;-68
2022/11/09 02:02:25;;;;;;;17.30;14.03;;;;;;;11.01;100.00;102151.78;2070954;28;20278;-68
2022/11/09 02:03:36;;;;;;;16.70;14.13;;;;;;;11.01;100.00;102149.03;2071768;28;20440;-68
2022/11/09 02:04:46;;;;;;;17.37;14.40;;;;;;;11.08;100.00;102147.03;2071282;28;20667;-68
2022/11/09 02:05:48;;;;;;;19.33;14.43;;;;;;;11.12;100.00;102145.00;2070782;28;20432;-68
2022/11/09 02:06:49;;;;;;;18.77;14.43;;;;;;;11.16;100.00;102148.56;2071485;28;20479;-68
2022/11/09 02:07:50;;;;;;;16.53;14.17;;;;;;;10.59;100.00;102061.09;2071600;28;20460;-68
2022/11/09 02:08:54;;;;;;;16.73;14.17;;;;;;;11.20;100.00;102148.56;2071119;28;20562;-68
2022/11/09 02:10:03;;;;;;;17.47;13.93;;;;;;;11.08;100.00;102124.84;2070951;28;20201;-68
2022/11/09 02:11:07;;;;;;;17.13;14.53;;;;;;;11.20;100.00;102143.00;2071235;28;21001;-68
2022/11/09 02:12:08;;;;;;;18.23;15.10;;;;;;;11.20;100.00;102143.00;2071094;28;20463;-68
2022/11/09 02:13:12;;;;;;;17.03;14.63;;;;;;;11.18;100.00;102142.63;2071176;28;20440;-68
2022/11/09 02:14:14;;;;;;;19.80;14.50;;;;;;;11.17;100.00;102143.84;2070061;28;20185;-68
2022/11/09 02:15:14;;;;;;;19.33;15.33;;;;;;;11.21;100.00;102141.81;2070892;28;20440;-68
2022/11/09 02:16:15;;;;;;;17.30;14.20;;;;;;;11.27;100.00;102151.34;2071698;28;20432;-68
2022/11/09 02:17:17;;;;;;;19.13;15.93;;;;;;;11.36;100.00;102151.69;2072328;28;20204;-68
2022/11/09 02:18:19;;;;;;;17.57;15.03;;;;;;;11.39;100.00;102165.59;2071724;28;20194;-68
2022/11/09 02:19:19;;;;;;;17.37;14.80;;;;;;;11.36;100.00;102154.47;2070843;28;20453;-68
2022/11/09 02:20:21;;;;;;;17.60;15.30;;;;;;;11.31;100.00;102146.56;2070955;28;20512;-68
2022/11/09 02:21:23;;;;;;;19.50;16.20;;;;;;;11.30;100.00;102145.78;2071641;28;20197;-68
2022/11/09 02:22:24;;;;;;;16.80;15.00;;;;;;;10.83;100.00;102070.56;2070962;28;20521;-69
2022/11/09 02:23:26;;;;;;;18.57;15.93;;;;;;;11.29;100.00;102146.97;2070730;28;20526;-68
2022/11/09 02:24:26;;;;;;;16.73;14.63;;;;;;;11.30;100.00;102148.56;2071001;28;20199;-68
2022/11/09 02:25:27;;;;;;;18.83;15.30;;;;;;;10.80;100.00;102076.91;2071264;28;20484;-68
2022/11/09 02:26:37;;;;;;;16.97;15.03;;;;;;;11.38;100.00;102152.09;2071828;28;20182;-68
2022/11/09 02:27:38;;;;;;;16.17;13.43;;;;;;;11.36;100.00;102137.81;2071143;28;20186;-68
2022/11/09 02:28:41;;;;;;;16.97;14.40;;;;;;;11.29;100.00;102127.53;2070586;28;20436;-69
2022/11/09 02:29:45;;;;;;;16.90;14.13;;;;;;;11.45;100.00;102152.88;2070965;28;20543;-68
2022/11/09 02:30:49;;;;;;;16.23;14.03;;;;;;;11.44;100.00;102154.06;2070682;28;20457;-68
2022/11/09 02:31:54;;;;;;;17.73;14.60;;;;;;;11.46;100.00;102148.91;2070932;28;20460;-68
2022/11/09 02:32:54;;;;;;;17.07;14.80;;;;;;;11.45;100.00;102161.19;2070900;28;20444;-69
2022/11/09 02:34:01;;;;;;;19.00;14.27;;;;;;;11.49;100.00;102156.44;2071382;28;20472;-68
2022/11/09 02:35:02;;;;;;;17.37;14.60;;;;;;;11.52;100.00;102166.72;2070847;28;20201;-68
2022/11/09 02:36:03;;;;;;;17.07;14.53;;;;;;;11.09;100.00;102095.09;2070886;28;20516;-68
2022/11/09 02:37:03;;;;;;;16.83;14.47;;;;;;;11.56;100.00;102150.84;2070998;28;20684;-68
2022/11/09 02:38:08;;;;;;;17.47;14.97;;;;;;;11.58;100.00;102147.66;2071935;28;20193;-68
2022/11/09 02:39:10;;;;;;;18.20;15.03;;;;;;;11.57;100.00;102155.19;2071347;28;20181;-68
2022/11/09 02:40:19;;;;;;;17.90;15.33;;;;;;;11.60;100.00;102154.44;2071416;28;20445;-68
2022/11/09 02:41:21;;;;;;;21.90;16.13;;;;;;;11.61;100.00;102158.78;2077849;28;20454;-68
2022/11/09 02:42:22;;;;;;;19.73;16.53;;;;;;;11.61;100.00;102153.25;2077840;28;20449;-68
2022/11/09 02:43:23;;;;;;;18.57;15.63;;;;;;;11.66;100.00;102147.28;2071569;28;20814;-68
2022/11/09 02:44:24;;;;;;;20.57;15.70;;;;;;;11.67;100.00;102162.72;2071162;28;20436;-68
2022/11/09 02:45:25;;;;;;;18.80;15.80;;;;;;;11.67;100.00;102159.94;2071038;28;20195;-68
2022/11/09 02:46:36;;;;;;;18.43;16.17;;;;;;;11.37;100.00;102115.22;2071030;28;20457;-68
2022/11/09 02:47:36;;;;;;;20.23;17.20;;;;;;;11.69;100.00;102160.34;2071383;28;20191;-68
2022/11/09 02:48:37;;;;;;;19.03;16.67;;;;;;;11.68;100.00;102164.31;2071115;28;21007;-68
2022/11/09 02:49:37;;;;;;;20.57;17.53;;;;;;;11.56;100.00;102150.03;2071352;28;20190;-68
2022/11/09 02:50:38;;;;;;;21.03;17.33;;;;;;;11.69;100.00;102162.34;2071187;28;20237;-68
2022/11/09 02:51:38;;;;;;;20.77;17.63;;;;;;;11.71;100.00;102163.50;2070896;28;20201;-68
2022/11/09 02:52:39;;;;;;;19.47;17.17;;;;;;;11.31;100.00;102107.69;2070137;28;20187;-68
2022/11/09 02:53:39;;;;;;;19.13;16.97;;;;;;;11.72;100.00;102167.06;2070442;28;20189;-68
2022/11/09 02:54:40;;;;;;;20.30;17.00;;;;;;;11.69;100.00;102157.56;2071293;28;20201;-68
2022/11/09 02:55:40;;;;;;;20.77;17.23;;;;;;;11.79;100.00;102165.03;2070644;28;20787;-68
2022/11/09 02:56:40;;;;;;;22.23;16.50;;;;;;;11.80;100.00;102163.06;2071261;28;20249;-68
2022/11/09 02:57:41;;;;;;;23.07;17.27;;;;;;;11.82;100.00;102169.81;2071491;28;20190;-68
2022/11/09 02:58:41;;;;;;;24.70;17.00;;;;;;;11.43;100.00;102105.28;2071483;28;20197;-68
2022/11/09 02:59:42;;;;;;;22.67;17.23;;;;;;;11.90;100.00;102165.81;2070796;28;20190;-68
2022/11/09 03:00:42;;;;;;;24.70;16.90;;;;;;;11.94;100.00;102171.34;2069624;28;20284;-68
2022/11/09 03:01:43;;;;;;;19.80;16.03;;;;;;;11.94;100.00;102160.25;2070907;28;20692;-68
2022/11/09 03:02:43;;;;;;;19.73;16.20;;;;;;;11.97;100.00;102167.75;2070282;28;20200;-68
2022/11/09 03:03:44;;;;;;;17.60;15.70;;;;;;;11.84;100.00;102144.41;2071440;28;20234;-68
2022/11/09 03:04:44;;;;;;;17.97;15.50;;;;;;;11.96;100.00;102163.38;2070900;28;20193;-68
2022/11/09 03:05:44;;;;;;;19.23;16.67;;;;;;;11.95;100.00;102172.94;2070897;28;20196;-68
2022/11/09 03:06:45;;;;;;;21.93;17.57;;;;;;;11.93;100.00;102167.78;2071806;28;20216;-68
2022/11/09 03:07:45;;;;;;;18.27;16.23;;;;;;;11.98;100.00;102164.56;2071475;28;20193;-68
2022/11/09 03:08:46;;;;;;;18.40;16.40;;;;;;;12.01;100.00;102162.97;2070516;28;20205;-68
2022/11/09 03:09:46;;;;;;;17.73;15.13;;;;;;;12.01;100.00;102166.56;2071254;28;20451;-68
2022/11/09 03:10:46;;;;;;;17.57;15.77;;;;;;;12.00;100.00;102164.94;2070973;28;20295;-68
2022/11/09 03:11:48;;;;;;;18.43;16.23;;;;;;;12.01;100.00;102166.56;2071071;28;31198;-68
2022/11/09 03:12:48;;;;;;;19.03;15.60;;;;;;;12.01;100.00;102160.19;2069889;28;20235;-68
2022/11/09 03:13:49;;;;;;;23.23;14.87;;;;;;;12.04;100.00;102164.94;2070294;28;20440;-68
2022/11/09 03:14:49;;;;;;;16.17;14.40;;;;;;;12.04;100.00;102165.72;2071117;28;20316;-68
2022/11/09 03:15:50;;;;;;;21.83;14.97;;;;;;;11.40;100.00;102060.88;2070558;28;20279;-68
2022/11/09 03:16:50;;;;;;;17.67;13.60;;;;;;;12.06;100.00;102166.13;2071264;28;20212;-68
2022/11/09 03:17:51;;;;;;;17.43;13.87;;;;;;;12.06;100.00;102166.13;2070867;28;20201;-68
2022/11/09 03:18:51;;;;;;;15.77;13.23;;;;;;;12.07;100.00;102164.13;2071022;28;20240;-68
2022/11/09 03:19:53;;;;;;;16.23;13.33;;;;;;;11.84;100.00;102131.28;2070804;28;20695;-68
2022/11/09 03:20:53;;;;;;;16.37;13.07;;;;;;;12.00;100.00;102164.16;2070858;28;20234;-68
2022/11/09 03:21:54;;;;;;;17.03;13.10;;;;;;;11.99;100.00;102162.59;2070878;28;20934;-68
2022/11/09 03:22:58;;;;;;;15.50;13.90;;;;;;;11.97;100.00;102165.78;2071340;28;20194;-68
2022/11/09 03:23:59;;;;;;;15.93;14.20;;;;;;;11.32;100.00;102059.34;2070670;28;20247;-68
2022/11/09 03:24:59;;;;;;;17.00;13.83;;;;;;;11.95;100.00;102164.59;2070660;28;20448;-68
2022/11/09 03:26:00;;;;;;;17.10;13.83;;;;;;;11.89;100.00;102169.78;2071165;28;20280;-69
2022/11/09 03:27:00;;;;;;;15.37;13.17;;;;;;;11.87;100.00;102166.63;2070683;28;20193;-68
2022/11/09 03:28:04;;;;;;;15.83;13.97;;;;;;;11.87;100.00;102168.59;2071312;28;20263;-68
2022/11/09 03:29:04;;;;;;;15.33;13.73;;;;;;;11.84;100.00;102172.97;2070772;28;20678;-68
2022/11/09 03:30:05;;;;;;;16.93;13.57;;;;;;;11.81;100.00;102159.09;2070880;28;20976;-68
2022/11/09 03:31:07;;;;;;;15.87;14.13;;;;;;;11.84;100.00;102172.97;2070809;28;20192;-68
2022/11/09 03:32:08;;;;;;;16.57;14.40;;;;;;;11.84;100.00;102175.75;2071293;28;20428;-68
2022/11/09 03:33:09;;;;;;;17.37;14.07;;;;;;;11.30;100.00;102089.47;2070971;28;20448;-68
2022/11/09 03:34:09;;;;;;;17.53;13.23;;;;;;;11.85;100.00;102179.31;2070589;28;20444;-68
2022/11/09 03:35:09;;;;;;;16.80;13.63;;;;;;;11.85;100.00;102177.34;2070933;28;20693;-68
2022/11/09 03:36:10;;;;;;;14.73;12.97;;;;;;;11.84;100.00;102177.75;2070937;28;20194;-68
2022/11/09 03:37:10;;;;;;;17.33;13.77;;;;;;;11.83;100.00;102174.16;2071118;28;20201;-68
2022/11/09 03:38:12;;;;;;;17.40;13.57;;;;;;;11.83;100.00;102174.16;2070649;28;20197;-68
2022/11/09 03:39:12;;;;;;;15.97;13.43;;;;;;;11.83;100.00;102170.63;2069566;28;20570;-68
2022/11/09 03:40:13;;;;;;;15.27;13.10;;;;;;;11.83;100.00;102173.38;2071182;28;20432;-68
2022/11/09 03:41:13;;;;;;;15.43;13.23;;;;;;;11.84;100.00;102166.63;2071030;28;20235;-68
2022/11/09 03:42:13;;;;;;;16.20;13.60;;;;;;;11.74;100.00;102165.47;2070906;28;20896;-68
2022/11/09 03:43:14;;;;;;;16.93;13.80;;;;;;;11.75;100.00;102180.97;2070983;28;20205;-68
2022/11/09 03:44:15;;;;;;;17.30;13.67;;;;;;;11.71;100.00;102173.81;2070181;28;20260;-68
2022/11/09 03:45:16;;;;;;;17.00;14.00;;;;;;;11.68;100.00;102169.09;2070771;28;20203;-68
2022/11/09 03:46:16;;;;;;;17.80;13.83;;;;;;;11.68;100.00;102180.19;2071048;28;20187;-68
2022/11/09 03:47:17;;;;;;;17.33;14.07;;;;;;;11.70;100.00;102181.38;2071102;28;20954;-68
2022/11/09 03:48:17;;;;;;;15.77;13.00;;;;;;;11.69;100.00;102176.22;2071656;28;20190;-68
2022/11/09 03:49:17;;;;;;;16.57;13.27;;;;;;;11.68;100.00;102174.63;2070347;28;20204;-69
2022/11/09 03:50:18;;;;;;;16.57;13.57;;;;;;;10.99;100.00;102070.94;2070674;28;20696;-68
2022/11/09 03:51:18;;;;;;;16.93;14.17;;;;;;;11.64;100.00;102176.63;2071130;28;20236;-68
2022/11/09 03:52:19;;;;;;;16.20;13.67;;;;;;;11.61;100.00;102180.19;2070702;28;20213;-68
2022/11/09 03:53:19;;;;;;;18.97;14.50;;;;;;;11.60;100.00;102179.44;2070592;28;20200;-69
2022/11/09 03:54:20;;;;;;;16.67;14.40;;;;;;;11.59;100.00;102177.03;2070336;28;20182;-68
2022/11/09 03:55:20;;;;;;;16.63;14.27;;;;;;;11.45;100.00;102177.06;2070211;28;20208;-68
2022/11/09 03:56:21;;;;;;;17.17;13.97;;;;;;;11.57;100.00;102185.75;2071721;28;20186;-68
2022/11/09 03:57:21;;;;;;;18.50;14.83;;;;;;;11.56;100.00;102186.94;2071264;28;20185;-68
2022/11/09 03:58:22;;;;;;;15.63;13.93;;;;;;;11.48;100.00;102177.03;2070643;28;20262;-68
2022/11/09 03:59:22;;;;;;;17.60;15.07;;;;;;;11.53;100.00;102184.19;2070706;28;20198;-68
2022/11/09 04:00:23;;;;;;;17.23;14.77;;;;;;;10.67;100.00;102045.25;2071037;28;20269;-68
2022/11/09 04:01:24;;;;;;;20.40;15.20;;;;;;;10.95;100.00;102092.34;2070866;28;20194;-68
2022/11/09 04:02:24;;;;;;;17.83;14.87;;;;;;;11.53;100.00;102189.72;2069865;28;20622;-68
2022/11/09 04:03:24;;;;;;;17.50;14.53;;;;;;;11.51;100.00;102187.34;2070519;28;20213;-68
2022/11/09 04:04:25;;;;;;;17.47;14.40;;;;;;;11.53;100.00;102187.72;2071548;28;20173;-68
2022/11/09 04:05:25;;;;;;;17.17;14.73;;;;;;;11.52;100.00;102193.72;2070305;28;20207;-68
2022/11/09 04:06:26;;;;;;;18.53;15.27;;;;;;;11.48;100.00;102196.47;2070969;28;20219;-68
2022/11/09 04:07:26;;;;;;;17.80;14.80;;;;;;;11.47;100.00;102186.56;2070502;28;20200;-68
2022/11/09 04:08:27;;;;;;;17.80;14.63;;;;;;;10.74;100.00;102068.22;2070994;28;20198;-68
2022/11/09 04:09:27;;;;;;;17.53;14.90;;;;;;;11.46;100.00;102193.31;2070087;28;20556;-68
2022/11/09 04:10:27;;;;;;;17.67;15.10;;;;;;;10.74;100.00;102082.09;2070614;28;20762;-68
2022/11/09 04:11:28;;;;;;;20.10;15.20;;;;;;;11.46;100.00;102193.31;2070087;28;20182;-68
2022/11/09 04:12:28;;;;;;;20.53;15.37;;;;;;;11.50;100.00;102194.09;2071065;28;20251;-68
2022/11/09 04:13:29;;;;;;;18.47;14.83;;;;;;;11.48;100.00;102198.47;2071058;28;20252;-68
2022/11/09 04:14:29;;;;;;;17.47;14.70;;;;;;;11.37;100.00;102181.81;2070771;28;20227;-68
2022/11/09 04:15:30;;;;;;;17.07;14.67;;;;;;;11.45;100.00;102190.94;2069848;28;20285;-68
2022/11/09 04:16:30;;;;;;;17.83;15.03;;;;;;;11.36;100.00;102177.47;2070490;28;20211;-68
2022/11/09 04:17:31;;;;;;;17.50;15.30;;;;;;;11.49;100.00;102197.28;2071074;28;20228;-68
2022/11/09 04:18:31;;;;;;;19.40;15.40;;;;;;;11.50;100.00;102199.66;2070247;28;20198;-68
2022/11/09 04:19:31;;;;;;;19.23;14.20;;;;;;;11.53;100.00;102198.84;2070561;28;20691;-68
2022/11/09 04:20:32;;;;;;;21.60;15.33;;;;;;;11.54;100.00;102200.41;2070736;28;20186;-68
2022/11/09 04:21:33;;;;;;;20.50;15.30;;;;;;;11.54;100.00;102194.88;2071072;28;20199;-68
2022/11/09 04:22:34;;;;;;;20.73;15.23;;;;;;;11.54;100.00;102194.88;2070160;28;20186;-68
2022/11/09 04:23:34;;;;;;;19.87;15.73;;;;;;;11.54;100.00;102197.63;2071000;28;20220;-68
2022/11/09 04:24:35;;;;;;;20.73;15.53;;;;;;;11.52;100.00;102202.81;2070468;28;20436;-69
2022/11/09 04:25:37;;;;;;;19.33;14.27;;;;;;;11.48;100.00;102190.16;2070432;28;20218;-68
2022/11/09 04:26:37;;;;;;;19.93;14.97;;;;;;;11.51;100.00;102198.47;2070927;28;20193;-68
2022/11/09 04:27:38;;;;;;;21.30;15.53;;;;;;;11.41;100.00;102193.72;2072305;28;20520;-68
2022/11/09 04:28:38;;;;;;;20.87;15.30;;;;;;;11.47;100.00;102197.66;2071808;28;20196;-68
2022/11/09 04:29:38;;;;;;;22.50;15.77;;;;;;;11.49;100.00;102197.28;2072587;28;20659;-68
2022/11/09 04:30:39;;;;;;;21.17;15.60;;;;;;;10.84;100.00;102102.66;2072134;28;20225;-68
2022/11/09 04:31:40;;;;;;;21.40;15.33;;;;;;;10.70;100.00;102074.94;2072508;28;20224;-68
2022/11/09 04:32:40;;;;;;;21.93;15.27;;;;;;;11.43;100.00;102193.31;2071598;28;20193;-68
2022/11/09 04:33:41;;;;;;;25.30;16.87;;;;;;;11.43;100.00;102193.31;2072178;28;20217;-68
2022/11/09 04:34:41;;;;;;;31.80;16.53;;;;;;;11.42;100.00;102200.06;2072136;28;20192;-68
2022/11/09 04:35:42;;;;;;;29.40;17.07;;;;;;;11.40;100.00;102197.69;2072083;28;20178;-68
2022/11/09 04:36:43;;;;;;;20.30;16.13;;;;;;;11.41;100.00;102192.91;2071309;28;20215;-68